X  Close Metar Aviation Weather Data     EHAM Amsterdam Airport Schiphol
Temperature
12°C Temperature
6°C Dewpoint
67% Humidity



Wind
19 KM/H
12 MPH
5 M/S
10 KTS



170°
South
Current Conditions

Clear Clear
Pressure 1020.92 (hPa) - 30.15 (inHg)
Visibility 6.2 (mile) - 10 (km)
Airport
Airport-code EHAM

Location: Amsterdam Airport Schiphol
Distance: 32 (km)

Metar:
EHAM 241255Z 17010KT 140V200 CAVOK 12/06 Q1021 NOSIG

Time: 24-10-2021 14:55 CEST